PLCH Airport Information

Runway Information
Runway 08 Length 6900 ft width 98 ft
Elevation 5 ft Threshold 0 ft Heading 90
Runway 26 Length 6900 ft Width 98 ft
Elevation 5 ft Threshold 0 ft Heading 270
Airport Frequencies
Type INFO Name AFIS Frequency 118.1 MHZ
Type INFO Name AFIS Frequency 346 MHZ
Airport Navaids
Type NDB Name Christmas Island Frequency 333 KHZ
Airport Weather Information & NOTAM
ADDS - METARS form results

(2019 UTC 27 September 2020)
Data provider http://aviationweather.gov/metar/data/
 
METAR text: PLCH 272000Z 11011G22KT 9999 FEW020 29/22 Q1012
Conditions at: PLCH (CHRISTMAS/CASSID, UM, US) observed 2000 UTC 27 September 2020
Temperature: 29.0°C (84°F)
Dewpoint: 22.0°C (72°F) [RH = 66%]
Pressure (altimeter): 29.88 inches Hg (1012.0 mb)
Winds: from the ESE (110 degrees) at 13 MPH (11 knots; 5.7 m/s)
gusting to 25 MPH (22 knots; 11.3 m/s)
Visibility: 6 or more miles (10+ km)
Ceiling: at least 12,000 feet AGL
Clouds: few clouds at 2000 feet AGL
Weather: no significant weather observed at this time

Forecast for: PLCH (CHRISTMAS/CASSID, UM, US)
Text: TAF PLCH 271716Z 2718/2818 10008KT 9999 SCT020
Forecast period: 1800 UTC 27 September 2020 to 1800 UTC 28 September 2020
Forecast type: FROM: standard forecast or significant change
Winds: from the E (100 degrees) at 9 MPH (8 knots; 4.1 m/s)
Visibility: 6 or more miles (10+ km)
Ceiling: at least 12,000 feet AGL
Clouds: scattered clouds at 2000 feet AGL
Weather: no significant weather forecast for this period